Observation data for Reese Center on 08/14/2019      Previous  Date  Next       Current Mesonet Observations  Soil Data  Daily Summary Page  Observations in Plain Language
KREE 140500Z 06007KT 25/17 A3014 RMK A01 T02500171  RH  063%=      5-min Rain = 0
KREE 140505Z 07007KT 25/17 A3014 RMK A01 T02480171  RH  064%=      5-min Rain = 0
KREE 140510Z 07007KT 25/17 A3014 RMK A01 T02490172  RH  064%=      5-min Rain = 0
KREE 140515Z 08008KT 25/17 A3014 RMK A01 T02490173  RH  064%=      5-min Rain = 0
KREE 140520Z 08007KT 25/17 A3014 RMK A01 T02490174  RH  064%=      5-min Rain = 0
KREE 140525Z 07008KT 25/17 A3014 RMK A01 T02490174  RH  065%=      5-min Rain = 0
KREE 140530Z 08007KT 25/17 A3014 RMK A01 T02480174  RH  065%=      5-min Rain = 0
KREE 140535Z 09007KT 25/17 A3014 RMK A01 T02450173  RH  066%=      5-min Rain = 0
KREE 140540Z 10006KT 25/17 A3014 RMK A01 T02450174  RH  066%=      5-min Rain = 0
KREE 140545Z 11007KT 24/17 A3013 RMK A01 T02440174  RH  066%=      5-min Rain = 0
KREE 140550Z 11008KT 25/17 A3013 RMK A01 T02460174  RH  066%=      5-min Rain = 0
KREE 140555Z 09008KT 25/17 A3013 RMK A01 T02480174  RH  065%=      5-min Rain = 0
KREE 140600Z 08007KT 25/18 A3013 RMK A01 T02460175  RH  066%=      5-min Rain = 0
KREE 140605Z 08007KT 25/18 A3014 RMK A01 T02480175  RH  065%=      5-min Rain = 0
KREE 140610Z 06007KT 25/17 A3014 RMK A01 T02490174  RH  065%=      5-min Rain = 0
KREE 140615Z 08007KT 25/17 A3014 RMK A01 T02460174  RH  066%=      5-min Rain = 0
KREE 140620Z 08008KT 25/18 A3014 RMK A01 T02450175  RH  066%=      5-min Rain = 0
KREE 140625Z 08009KT 25/18 A3014 RMK A01 T02450175  RH  066%=      5-min Rain = 0
KREE 140630Z 08008KT 25/18 A3014 RMK A01 T02460175  RH  066%=      5-min Rain = 0
KREE 140635Z 08009KT 25/18 A3014 RMK A01 T02450175  RH  067%=      5-min Rain = 0
KREE 140640Z 07008KT 24/17 A3014 RMK A01 T02440174  RH  067%=      5-min Rain = 0
KREE 140645Z 07008KT 24/17 A3014 RMK A01 T02430174  RH  067%=      5-min Rain = 0
KREE 140650Z 08009KT 24/17 A3014 RMK A01 T02410174  RH  068%=      5-min Rain = 0
KREE 140655Z 08009KT 24/18 A3014 RMK A01 T02410175  RH  068%=      5-min Rain = 0
KREE 140700Z 08009KT 24/17 A3014 RMK A01 T02390174  RH  069%=      5-min Rain = 0
KREE 140705Z 08008KT 24/18 A3014 RMK A01 T02370175  RH  070%=      5-min Rain = 0
KREE 140710Z 07009KT 24/17 A3015 RMK A01 T02360174  RH  070%=      5-min Rain = 0
KREE 140715Z 08009KT 24/18 A3015 RMK A01 T02370175  RH  070%=      5-min Rain = 0
KREE 140720Z 08010KT 24/18 A3015 RMK A01 T02370175  RH  070%=      5-min Rain = 0
KREE 140725Z 08010KT 24/17 A3015 RMK A01 T02370174  RH  069%=      5-min Rain = 0
KREE 140730Z 07011KT 24/17 A3015 RMK A01 T02380174  RH  069%=      5-min Rain = 0
KREE 140735Z 07009KT 24/17 A3015 RMK A01 T02370174  RH  069%=      5-min Rain = 0
KREE 140740Z 07009KT 24/17 A3015 RMK A01 T02360174  RH  070%=      5-min Rain = 0
KREE 140745Z 07010KT 24/18 A3015 RMK A01 T02360175  RH  070%=      5-min Rain = 0
KREE 140750Z 08010KT 24/18 A3015 RMK A01 T02360175  RH  070%=      5-min Rain = 0
KREE 140755Z 07010KT 24/18 A3015 RMK A01 T02360175  RH  071%=      5-min Rain = 0
KREE 140800Z 07009KT 24/18 A3015 RMK A01 T02360176  RH  071%=      5-min Rain = 0
KREE 140805Z 06009KT 24/18 A3015 RMK A01 T02350175  RH  071%=      5-min Rain = 0
KREE 140810Z 06008KT 23/18 A3015 RMK A01 T02330176  RH  072%=      5-min Rain = 0
KREE 140815Z 05008KT 23/18 A3015 RMK A01 T02310175  RH  073%=      5-min Rain = 0
KREE 140820Z 06008KT 23/18 A3015 RMK A01 T02300175  RH  073%=      5-min Rain = 0
KREE 140825Z 06008KT 23/18 A3015 RMK A01 T02300175  RH  073%=      5-min Rain = 0
KREE 140830Z 06007KT 23/18 A3015 RMK A01 T02280175  RH  074%=      5-min Rain = 0
KREE 140835Z 07007KT 23/18 A3015 RMK A01 T02270175  RH  074%=      5-min Rain = 0
KREE 140840Z 07007KT 23/18 A3015 RMK A01 T02270175  RH  075%=      5-min Rain = 0
KREE 140845Z 07007KT 23/18 A3015 RMK A01 T02270176  RH  075%=      5-min Rain = 0
KREE 140850Z 07007KT 23/18 A3014 RMK A01 T02270176  RH  074%=      5-min Rain = 0
KREE 140855Z 08007KT 23/18 A3014 RMK A01 T02270176  RH  075%=      5-min Rain = 0
KREE 140900Z 08006KT 23/18 A3014 RMK A01 T02250176  RH  075%=      5-min Rain = 0
KREE 140905Z 08006KT 23/18 A3015 RMK A01 T02250175  RH  076%=      5-min Rain = 0
KREE 140910Z 07006KT 22/18 A3015 RMK A01 T02240175  RH  076%=      5-min Rain = 0
KREE 140915Z 08006KT 22/18 A3014 RMK A01 T02240175  RH  076%=      5-min Rain = 0
KREE 140920Z 07006KT 22/18 A3015 RMK A01 T02230175  RH  076%=      5-min Rain = 0
KREE 140925Z 07005KT 22/18 A3015 RMK A01 T02230175  RH  076%=      5-min Rain = 0
KREE 140930Z 07005KT 22/18 A3015 RMK A01 T02220175  RH  077%=      5-min Rain = 0
KREE 140935Z 08006KT 22/18 A3015 RMK A01 T02210175  RH  077%=      5-min Rain = 0
KREE 140940Z 06006KT 22/18 A3015 RMK A01 T02230175  RH  076%=      5-min Rain = 0
KREE 140945Z 06006KT 22/18 A3015 RMK A01 T02220175  RH  076%=      5-min Rain = 0
KREE 140950Z 05006KT 22/18 A3015 RMK A01 T02200175  RH  077%=      5-min Rain = 0
KREE 140955Z 05006KT 22/18 A3015 RMK A01 T02170175  RH  079%=      5-min Rain = 0
KREE 141000Z 04007KT 22/18 A3015 RMK A01 T02150175  RH  080%=      5-min Rain = 0
KREE 141005Z 04007KT 21/18 A3015 RMK A01 T02140175  RH  080%=      5-min Rain = 0
KREE 141010Z 05006KT 22/18 A3015 RMK A01 T02150176  RH  080%=      5-min Rain = 0
KREE 141015Z 04006KT 22/18 A3015 RMK A01 T02160176  RH  080%=      5-min Rain = 0
KREE 141020Z 03007KT 22/18 A3016 RMK A01 T02170177  RH  080%=      5-min Rain = 0
KREE 141025Z 03007KT 22/18 A3016 RMK A01 T02180178  RH  080%=      5-min Rain = 0
KREE 141030Z 04009KT 22/18 A3016 RMK A01 T02190178  RH  080%=      5-min Rain = 0
KREE 141035Z 05011G16KT 22/18 A3016 RMK A01 T02210178  RH  079%=      5-min Rain = 0
KREE 141040Z 05011G16KT 22/18 A3016 RMK A01 T02220177  RH  078%=      5-min Rain = 0
KREE 141045Z 05013G18KT 22/18 A3017 RMK A01 T02230176  RH  077%=      5-min Rain = 0
KREE 141050Z 05014KT 22/18 A3017 RMK A01 T02230175  RH  076%=      5-min Rain = 0
KREE 141055Z 05013KT 22/18 A3017 RMK A01 T02230175  RH  076%=      5-min Rain = 0
KREE 141100Z 05013KT 22/18 A3017 RMK A01 T02220175  RH  077%=      5-min Rain = 0
KREE 141105Z 05015G20KT 22/18 A3018 RMK A01 T02220176  RH  077%=      5-min Rain = 0
KREE 141110Z 05014KT 22/18 A3018 RMK A01 T02210175  RH  077%=      5-min Rain = 0
KREE 141115Z 05014G21KT 22/18 A3018 RMK A01 T02190175  RH  078%=      5-min Rain = 0
KREE 141120Z 06015G20KT 22/17 A3018 RMK A01 T02190174  RH  078%=      5-min Rain = 0
KREE 141125Z 05015KT 22/17 A3018 RMK A01 T02180173  RH  078%=      5-min Rain = 0
KREE 141130Z 05017G23KT 22/17 A3018 RMK A01 T02170170  RH  076%=      5-min Rain = 0
KREE 141135Z 06014KT 22/17 A3019 RMK A01 T02160167  RH  076%=      5-min Rain = 0
KREE 141140Z 05015G21KT 22/17 A3019 RMK A01 T02150165  RH  075%=      5-min Rain = 0
KREE 141145Z 05016G22KT 21/16 A3019 RMK A01 T02140162  RH  074%=      5-min Rain = 0
KREE 141150Z 05017KT 21/16 A3019 RMK A01 T02130159  RH  073%=      5-min Rain = 0
KREE 141155Z 06015KT 21/16 A302 RMK A01 T02120156  RH  072%=      5-min Rain = 0
KREE 141200Z 05013KT 21/16 A302 RMK A01 T02110156  RH  072%=      5-min Rain = 0
KREE 141205Z 05013G18KT 21/16 A302 RMK A01 T02090155  RH  073%=      5-min Rain = 0
KREE 141210Z 05015G20KT 21/15 A3021 RMK A01 T02080153  RH  072%=      5-min Rain = 0
KREE 141215Z 05015G20KT 21/15 A3021 RMK A01 T02070151  RH  072%=      5-min Rain = 0
KREE 141220Z 05014G22KT 21/15 A3021 RMK A01 T02060150  RH  072%=      5-min Rain = 0
KREE 141225Z 05017G23KT 21/15 A3022 RMK A01 T02050148  RH  071%=      5-min Rain = 0
KREE 141230Z 05018KT 21/15 A3022 RMK A01 T02050148  RH  071%=      5-min Rain = 0
KREE 141235Z 04014KT 21/15 A3022 RMK A01 T02050148  RH  071%=      5-min Rain = 0
KREE 141240Z 04016KT 21/15 A3022 RMK A01 T02060148  RH  071%=      5-min Rain = 0
KREE 141245Z 04015KT 21/15 A3023 RMK A01 T02050148  RH  071%=      5-min Rain = 0
KREE 141250Z 04015KT 21/15 A3023 RMK A01 T02050147  RH  071%=      5-min Rain = 0
KREE 141255Z 05013G18KT 21/15 A3023 RMK A01 T02050147  RH  071%=      5-min Rain = 0
KREE 141300Z 04014KT 21/15 A3023 RMK A01 T02050147  RH  071%=      5-min Rain = 0
KREE 141305Z 04015KT 21/15 A3023 RMK A01 T02060148  RH  071%=      5-min Rain = 0
KREE 141310Z 04012G18KT 21/15 A3024 RMK A01 T02060148  RH  071%=      5-min Rain = 0
KREE 141315Z 04013G18KT 21/15 A3024 RMK A01 T02060148  RH  071%=      5-min Rain = 0
KREE 141320Z 04014KT 21/15 A3024 RMK A01 T02060148  RH  071%=      5-min Rain = 0
KREE 141325Z 04013KT 21/15 A3024 RMK A01 T02080148  RH  070%=      5-min Rain = 0
KREE 141330Z 04015KT 21/15 A3024 RMK A01 T02110149  RH  069%=      5-min Rain = 0
KREE 141335Z 04012G18KT 22/15 A3025 RMK A01 T02160150  RH  068%=      5-min Rain = 0
KREE 141340Z 04013KT 21/16 A3025 RMK A01 T02130156  RH  072%=      5-min Rain = 0
KREE 141345Z 04012KT 21/16 A3025 RMK A01 T02070161  RH  077%=      5-min Rain = 0
KREE 141350Z 04012KT 21/16 A3025 RMK A01 T02080161  RH  076%=      5-min Rain = 0
KREE 141355Z 03011KT 21/16 A3025 RMK A01 T02120160  RH  074%=      5-min Rain = 0
KREE 141400Z 03010KT 21/16 A3026 RMK A01 T02120158  RH  073%=      5-min Rain = 0
KREE 141405Z 03010KT 21/16 A3026 RMK A01 T02120157  RH  072%=      5-min Rain = 0
KREE 141410Z 02009KT 22/16 A3026 RMK A01 T02190159  RH  070%=      5-min Rain = 0
KREE 141415Z 03007KT 22/16 A3026 RMK A01 T02210158  RH  069%=      5-min Rain = 0
KREE 141420Z 04007KT 22/16 A3026 RMK A01 T02210159  RH  070%=      5-min Rain = 0
KREE 141425Z 03008KT 23/16 A3026 RMK A01 T02250160  RH  068%=      5-min Rain = 0
KREE 141430Z 03008KT 23/16 A3026 RMK A01 T02270160  RH  067%=      5-min Rain = 0
KREE 141435Z 03010KT 23/16 A3026 RMK A01 T02310160  RH  066%=      5-min Rain = 0
KREE 141440Z 02011KT 23/16 A3026 RMK A01 T02310159  RH  065%=      5-min Rain = 0
KREE 141445Z 01012G17KT 23/16 A3027 RMK A01 T02330158  RH  064%=      5-min Rain = 0
KREE 141450Z 01014KT 24/16 A3027 RMK A01 T02350156  RH  063%=      5-min Rain = 0
KREE 141455Z 01014G19KT 24/16 A3027 RMK A01 T02390155  RH  061%=      5-min Rain = 0
KREE 141500Z 02014KT 24/15 A3027 RMK A01 T02430154  RH  059%=      5-min Rain = 0
KREE 141505Z 03012KT 24/15 A3026 RMK A01 T02430154  RH  059%=      5-min Rain = 0
KREE 141510Z 03010KT 25/16 A3026 RMK A01 T02480157  RH  058%=      5-min Rain = 0
KREE 141515Z 04011KT 25/16 A3025 RMK A01 T02480155  RH  058%=      5-min Rain = 0
KREE 141520Z 03010KT 25/16 A3026 RMK A01 T02540158  RH  056%=      5-min Rain = 0
KREE 141525Z 03010KT 26/16 A3026 RMK A01 T02570159  RH  056%=      5-min Rain = 0
KREE 141530Z 03011KT 26/16 A3026 RMK A01 T02590159  RH  055%=      5-min Rain = 0
KREE 141535Z 04010G15KT 26/16 A3025 RMK A01 T02560160  RH  057%=      5-min Rain = 0
KREE 141540Z 03010G15KT 26/16 A3025 RMK A01 T02620161  RH  055%=      5-min Rain = 0
KREE 141545Z 03010KT 27/16 A3025 RMK A01 T02650160  RH  054%=      5-min Rain = 0
KREE 141550Z 04012KT 27/16 A3025 RMK A01 T02660159  RH  053%=      5-min Rain = 0
KREE 141555Z 03010KT 27/16 A3025 RMK A01 T02700160  RH  052%=      5-min Rain = 0
KREE 141600Z 03010KT 28/16 A3025 RMK A01 T02770161  RH  050%=      5-min Rain = 0
KREE 141605Z 04010KT 28/16 A3024 RMK A01 T02780158  RH  049%=      5-min Rain = 0
KREE 141610Z 05009KT 28/16 A3024 RMK A01 T02810157  RH  048%=      5-min Rain = 0
KREE 141615Z 06010KT 29/16 A3023 RMK A01 T02860157  RH  046%=      5-min Rain = 0
KREE 141620Z 07010G17KT 29/15 A3023 RMK A01 T02890153  RH  045%=      5-min Rain = 0
KREE 141625Z 06012G20KT 29/15 A3022 RMK A01 T02880146  RH  043%=      5-min Rain = 0
KREE 141630Z 06011G16KT 29/14 A3022 RMK A01 T02900142  RH  041%=      5-min Rain = 0
KREE 141635Z 08012KT 29/14 A3021 RMK A01 T02910141  RH  041%=      5-min Rain = 0
KREE 141640Z 08011G17KT 29/14 A3021 RMK A01 T02930142  RH  040%=      5-min Rain = 0
KREE 141645Z 09011G17KT 29/14 A302 RMK A01 T02940139  RH  039%=      5-min Rain = 0
KREE 141650Z 09010KT 30/14 A302 RMK A01 T03000135  RH  037%=      5-min Rain = 0
KREE 141655Z 09012KT 30/14 A302 RMK A01 T02990136  RH  038%=      5-min Rain = 0
KREE 141700Z 08011G16KT 30/14 A302 RMK A01 T03000135  RH  037%=      5-min Rain = 0
KREE 141705Z 09013KT 30/14 A302 RMK A01 T03030135  RH  037%=      5-min Rain = 0
KREE 141710Z 09013G18KT 31/13 A3019 RMK A01 T03060130  RH  035%=      5-min Rain = 0
KREE 141715Z 09011G16KT 31/13 A3019 RMK A01 T03070127  RH  034%=      5-min Rain = 0
KREE 141720Z 10013G18KT 31/13 A3019 RMK A01 T03090130  RH  034%=      5-min Rain = 0
KREE 141725Z 10015KT 31/12 A3019 RMK A01 T03120120  RH  031%=      5-min Rain = 0
KREE 141730Z 10013KT 32/12 A3019 RMK A01 T03150121  RH  031%=      5-min Rain = 0
KREE 141735Z 10012G17KT 31/12 A3019 RMK A01 T03110117  RH  031%=      5-min Rain = 0
KREE 141740Z 10012KT 31/12 A3019 RMK A01 T03140118  RH  031%=      5-min Rain = 0
KREE 141745Z 11012G17KT 32/12 A3019 RMK A01 T03160121  RH  031%=      5-min Rain = 0
KREE 141750Z 09012KT 32/12 A3019 RMK A01 T03160122  RH  031%=      5-min Rain = 0
KREE 141755Z 09012G18KT 32/12 A3019 RMK A01 T03190120  RH  030%=      5-min Rain = 0
KREE 141800Z 08011G17KT 32/12 A3019 RMK A01 T03200120  RH  030%=      5-min Rain = 0
KREE 141805Z 09013KT 32/12 A3019 RMK A01 T03190120  RH  030%=      5-min Rain = 0
KREE 141810Z 09012G19KT 32/12 A3019 RMK A01 T03170124  RH  031%=      5-min Rain = 0
KREE 141815Z 08010G16KT 32/13 A3019 RMK A01 T03190125  RH  031%=      5-min Rain = 0
KREE 141820Z 06012G18KT 33/12 A3019 RMK A01 T03260123  RH  030%=      5-min Rain = 0
KREE 141825Z 06012G18KT 33/12 A3019 RMK A01 T03250118  RH  029%=      5-min Rain = 0
KREE 141830Z 06013KT 33/12 A3019 RMK A01 T03270118  RH  028%=      5-min Rain = 0
KREE 141835Z 06012KT 32/12 A3019 RMK A01 T03240122  RH  030%=      5-min Rain = 0
KREE 141840Z 06012G20KT 33/12 A3019 RMK A01 T03310124  RH  029%=      5-min Rain = 0
KREE 141845Z 07011G17KT 33/12 A3019 RMK A01 T03300121  RH  028%=      5-min Rain = 0
KREE 141850Z 08013G23KT 32/12 A3019 RMK A01 T03230120  RH  030%=      5-min Rain = 0
KREE 141855Z 06013G19KT 33/12 A3019 RMK A01 T03260118  RH  029%=      5-min Rain = 0
KREE 141900Z 06010KT 33/12 A3019 RMK A01 T03260115  RH  028%=      5-min Rain = 0
KREE 141905Z 07012KT 33/12 A3019 RMK A01 T03270117  RH  028%=      5-min Rain = 0
KREE 141910Z 07011KT 33/12 A3019 RMK A01 T03330117  RH  027%=      5-min Rain = 0
KREE 141915Z 05012G17KT 33/12 A3019 RMK A01 T03310116  RH  027%=      5-min Rain = 0
KREE 141920Z 06011G16KT 33/11 A3019 RMK A01 T03270114  RH  028%=      5-min Rain = 0
KREE 141925Z 05012G17KT 33/12 A3018 RMK A01 T03300115  RH  027%=      5-min Rain = 0
KREE 141930Z 04011G17KT 33/12 A3018 RMK A01 T03280115  RH  028%=      5-min Rain = 0
KREE 141935Z 08008G14KT 33/12 A3018 RMK A01 T03270118  RH  029%=      5-min Rain = 0
KREE 141940Z 08012G17KT 33/12 A3018 RMK A01 T03320121  RH  028%=      5-min Rain = 0
KREE 141945Z 06011KT 34/12 A3018 RMK A01 T03360119  RH  027%=      5-min Rain = 0
KREE 141950Z 04014G21KT 33/12 A3018 RMK A01 T03310115  RH  027%=      5-min Rain = 0
KREE 141955Z 05012G17KT 34/11 A3017 RMK A01 T03350114  RH  026%=      5-min Rain = 0
KREE 142000Z 04010KT 33/11 A3017 RMK A01 T03330111  RH  026%=      5-min Rain = 0
KREE 142005Z 03007G12KT 33/11 A3017 RMK A01 T03310113  RH  027%=      5-min Rain = 0
KREE 142010Z 07010KT 33/12 A3016 RMK A01 T03330116  RH  027%=      5-min Rain = 0
KREE 142015Z 06010KT 34/12 A3016 RMK A01 T03380115  RH  026%=      5-min Rain = 0
KREE 142020Z 07009G15KT 33/12 A3015 RMK A01 T03330118  RH  028%=      5-min Rain = 0
KREE 142025Z 07009KT 34/12 A3015 RMK A01 T03360116  RH  027%=      5-min Rain = 0
KREE 142030Z 08009KT 34/12 A3015 RMK A01 T03350115  RH  027%=      5-min Rain = 0
KREE 142035Z 05009G14KT 34/11 A3015 RMK A01 T03380113  RH  026%=      5-min Rain = 0
KREE 142040Z 07008G13KT 34/11 A3014 RMK A01 T03370109  RH  025%=      5-min Rain = 0
KREE 142045Z 02008KT 34/11 A3014 RMK A01 T03350109  RH  026%=      5-min Rain = 0
KREE 142050Z 01007G12KT 34/11 A3014 RMK A01 T03370107  RH  025%=      5-min Rain = 0
KREE 142055Z 03006G12KT 34/11 A3013 RMK A01 T03400110  RH  025%=      5-min Rain = 0
KREE 142100Z 03008KT 34/11 A3013 RMK A01 T03400111  RH  025%=      5-min Rain = 0
KREE 142105Z 07006G11KT 33/11 A3013 RMK A01 T03330106  RH  025%=      5-min Rain = 0
KREE 142110Z 03004KT 34/11 A3012 RMK A01 T03350109  RH  026%=      5-min Rain = 0
KREE 142115Z 00003KT 34/11 A3012 RMK A01 T03380114  RH  026%=      5-min Rain = 0
KREE 142120Z 03005G11KT 34/11 A3012 RMK A01 T03390114  RH  026%=      5-min Rain = 0
KREE 142125Z 03008KT 34/11 A3012 RMK A01 T03420110  RH  025%=      5-min Rain = 0
KREE 142130Z 03004G10KT 34/11 A3012 RMK A01 T03350110  RH  026%=      5-min Rain = 0
KREE 142135Z 05006G12KT 34/11 A3011 RMK A01 T03410111  RH  025%=      5-min Rain = 0
KREE 142140Z 00004G10KT 34/11 A3011 RMK A01 T03370109  RH  025%=      5-min Rain = 0
KREE 142145Z 07006G11KT 34/11 A3011 RMK A01 T03370109  RH  025%=      5-min Rain = 0
KREE 142150Z 06007KT 34/11 A3011 RMK A01 T03390110  RH  025%=      5-min Rain = 0
KREE 142155Z 02005KT 34/11 A3011 RMK A01 T03390109  RH  025%=      5-min Rain = 0
KREE 142200Z 32002KT 34/11 A3011 RMK A01 T03410111  RH  025%=      5-min Rain = 0
KREE 142205Z 04006KT 35/11 A3011 RMK A01 T03470109  RH  024%=      5-min Rain = 0
KREE 142210Z 32005KT 34/11 A301 RMK A01 T03420107  RH  024%=      5-min Rain = 0
KREE 142215Z 07003G9KT 34/11 A301 RMK A01 T03430107  RH  024%=      5-min Rain = 0
KREE 142220Z 12005G10KT 34/10 A301 RMK A01 T03420104  RH  024%=      5-min Rain = 0
KREE 142225Z 13003G8KT 34/10 A301 RMK A01 T03410102  RH  024%=      5-min Rain = 0
KREE 142230Z 12005G10KT 35/11 A301 RMK A01 T03460105  RH  023%=      5-min Rain = 0
KREE 142235Z 04006KT 34/11 A301 RMK A01 T03420107  RH  024%=      5-min Rain = 0
KREE 142240Z 06003KT 34/11 A301 RMK A01 T03430107  RH  024%=      5-min Rain = 0
KREE 142245Z 12005KT 34/10 A301 RMK A01 T03430103  RH  023%=      5-min Rain = 0
KREE 142250Z 08007KT 34/11 A301 RMK A01 T03440105  RH  024%=      5-min Rain = 0
KREE 142255Z 09007G14KT 34/10 A301 RMK A01 T03400104  RH  024%=      5-min Rain = 0
KREE 142300Z 08006G11KT 34/10 A301 RMK A01 T03410103  RH  024%=      5-min Rain = 0
KREE 142305Z 09005KT 34/10 A301 RMK A01 T03420100  RH  023%=      5-min Rain = 0
KREE 142310Z 13002KT 34/10 A301 RMK A01 T03400101  RH  024%=      5-min Rain = 0
KREE 142315Z 12005KT 34/10 A301 RMK A01 T03440102  RH  023%=      5-min Rain = 0
KREE 142320Z 09004G9KT 34/10 A301 RMK A01 T03430103  RH  024%=      5-min Rain = 0
KREE 142325Z 07003G9KT 34/10 A301 RMK A01 T03410104  RH  024%=      5-min Rain = 0
KREE 142330Z 05006KT 34/10 A301 RMK A01 T03440102  RH  023%=      5-min Rain = 0
KREE 142335Z 09008KT 34/10 A301 RMK A01 T03400102  RH  024%=      5-min Rain = 0
KREE 142340Z 06007KT 34/10 A3009 RMK A01 T03400102  RH  024%=      5-min Rain = 0
KREE 142345Z 07008KT 34/10 A3009 RMK A01 T03410102  RH  024%=      5-min Rain = 0
KREE 142350Z 07008KT 34/10 A3009 RMK A01 T03390102  RH  024%=      5-min Rain = 0
KREE 142355Z 04006KT 34/10 A3009 RMK A01 T03390101  RH  024%=      5-min Rain = 0
KREE 150000Z 03005KT 34/10 A3009 RMK A01 T03400100  RH  024%=      5-min Rain = 0
KREE 150005Z 08009KT 34/10 A3009 RMK A01 T03370104  RH  024%=      5-min Rain = 0
KREE 150010Z 08008KT 33/11 A3009 RMK A01 T03340105  RH  025%=      5-min Rain = 0
KREE 150015Z 06008KT 34/11 A3009 RMK A01 T03360105  RH  025%=      5-min Rain = 0
KREE 150020Z 07007KT 33/10 A3009 RMK A01 T03330104  RH  025%=      5-min Rain = 0
KREE 150025Z 06006KT 33/11 A3009 RMK A01 T03320105  RH  025%=      5-min Rain = 0
KREE 150030Z 07007KT 33/11 A301 RMK A01 T03310105  RH  026%=      5-min Rain = 0
KREE 150035Z 07005KT 33/10 A301 RMK A01 T03310104  RH  025%=      5-min Rain = 0
KREE 150040Z 07006KT 33/11 A301 RMK A01 T03300107  RH  026%=      5-min Rain = 0
KREE 150045Z 07007KT 33/11 A301 RMK A01 T03280109  RH  027%=      5-min Rain = 0
KREE 150050Z 07007KT 33/11 A301 RMK A01 T03280108  RH  026%=      5-min Rain = 0
KREE 150055Z 07006KT 33/11 A301 RMK A01 T03270110  RH  027%=      5-min Rain = 0
KREE 150100Z 08007KT 32/12 A301 RMK A01 T03240115  RH  028%=      5-min Rain = 0
KREE 150105Z 08007KT 32/12 A301 RMK A01 T03200117  RH  029%=      5-min Rain = 0
KREE 150110Z 07006KT 32/12 A301 RMK A01 T03160117  RH  030%=      5-min Rain = 0
KREE 150115Z 07007KT 31/12 A3011 RMK A01 T03140117  RH  030%=      5-min Rain = 0
KREE 150120Z 07006KT 31/12 A3011 RMK A01 T03110117  RH  031%=      5-min Rain = 0
KREE 150125Z 07006KT 31/12 A3011 RMK A01 T03070117  RH  032%=      5-min Rain = 0
KREE 150130Z 06006KT 31/12 A3011 RMK A01 T03050118  RH  032%=      5-min Rain = 0
KREE 150135Z 07006KT 30/12 A3011 RMK A01 T03020118  RH  033%=      5-min Rain = 0
KREE 150140Z 07006KT 30/12 A3012 RMK A01 T02970118  RH  034%=      5-min Rain = 0
KREE 150145Z 07006KT 29/12 A3012 RMK A01 T02930118  RH  035%=      5-min Rain = 0
KREE 150150Z 08006KT 29/12 A3012 RMK A01 T02870119  RH  036%=      5-min Rain = 0
KREE 150155Z 08007KT 28/12 A3012 RMK A01 T02840119  RH  037%=      5-min Rain = 0
KREE 150200Z 08007KT 28/12 A3012 RMK A01 T02840119  RH  037%=      5-min Rain = 0
KREE 150205Z 08007KT 28/12 A3013 RMK A01 T02830120  RH  037%=      5-min Rain = 0
KREE 150210Z 08007KT 28/12 A3013 RMK A01 T02820121  RH  038%=      5-min Rain = 0
KREE 150215Z 08008KT 28/12 A3013 RMK A01 T02810123  RH  038%=      5-min Rain = 0
KREE 150220Z 08008KT 28/13 A3013 RMK A01 T02810125  RH  039%=      5-min Rain = 0
KREE 150225Z 09007KT 28/13 A3014 RMK A01 T02810127  RH  039%=      5-min Rain = 0
KREE 150230Z 09006KT 28/13 A3014 RMK A01 T02790127  RH  040%=      5-min Rain = 0
KREE 150235Z 09006KT 28/13 A3014 RMK A01 T02770128  RH  041%=      5-min Rain = 0
KREE 150240Z 09006KT 27/13 A3014 RMK A01 T02740128  RH  041%=      5-min Rain = 0
KREE 150245Z 09006KT 27/13 A3014 RMK A01 T02720127  RH  041%=      5-min Rain = 0
KREE 150250Z 09005KT 27/13 A3014 RMK A01 T02700128  RH  042%=      5-min Rain = 0
KREE 150255Z 09005KT 27/13 A3014 RMK A01 T02680128  RH  043%=      5-min Rain = 0
KREE 150300Z 09006KT 27/13 A3015 RMK A01 T02670128  RH  043%=      5-min Rain = 0
KREE 150305Z 10007KT 27/13 A3015 RMK A01 T02690127  RH  042%=      5-min Rain = 0
KREE 150310Z 10007KT 28/13 A3015 RMK A01 T02750127  RH  041%=      5-min Rain = 0
KREE 150315Z 10007KT 27/13 A3015 RMK A01 T02730126  RH  041%=      5-min Rain = 0
KREE 150320Z 10007KT 27/13 A3015 RMK A01 T02710126  RH  041%=      5-min Rain = 0
KREE 150325Z 10007KT 27/13 A3015 RMK A01 T02730128  RH  041%=      5-min Rain = 0
KREE 150330Z 10008KT 28/13 A3015 RMK A01 T02750129  RH  041%=      5-min Rain = 0
KREE 150335Z 11008KT 28/13 A3016 RMK A01 T02780131  RH  041%=      5-min Rain = 0
KREE 150340Z 11008KT 28/13 A3016 RMK A01 T02800133  RH  041%=      5-min Rain = 0
KREE 150345Z 11009KT 28/13 A3016 RMK A01 T02820134  RH  041%=      5-min Rain = 0
KREE 150350Z 11009KT 28/14 A3016 RMK A01 T02840136  RH  041%=      5-min Rain = 0
KREE 150355Z 12010KT 29/14 A3017 RMK A01 T02870138  RH  041%=      5-min Rain = 0
KREE 150400Z 11010KT 29/14 A3017 RMK A01 T02870140  RH  041%=      5-min Rain = 0
KREE 150405Z 11011KT 29/14 A3017 RMK A01 T02880143  RH  042%=      5-min Rain = 0
KREE 150410Z 11010KT 29/15 A3017 RMK A01 T02860145  RH  043%=      5-min Rain = 0
KREE 150415Z 11011KT 29/15 A3017 RMK A01 T02860148  RH  044%=      5-min Rain = 0
KREE 150420Z 12014KT 29/15 A3017 RMK A01 T02880150  RH  044%=      5-min Rain = 0
KREE 150425Z 12013KT 29/15 A3017 RMK A01 T02870150  RH  044%=      5-min Rain = 0
KREE 150430Z 12013KT 29/15 A3017 RMK A01 T02860150  RH  045%=      5-min Rain = 0
KREE 150435Z 12013KT 29/15 A3016 RMK A01 T02850150  RH  045%=      5-min Rain = 0
KREE 150440Z 12013KT 28/15 A3016 RMK A01 T02840151  RH  045%=      5-min Rain = 0
KREE 150445Z 12012KT 28/15 A3016 RMK A01 T02830151  RH  045%=      5-min Rain = 0
KREE 150450Z 12013KT 28/15 A3017 RMK A01 T02830151  RH  046%=      5-min Rain = 0
KREE 150455Z 12013KT 28/15 A3017 RMK A01 T02830153  RH  046%=      5-min Rain = 0

Page generated in 0.0089 seconds.